sensor_id;sensor_type;location;lat;lon;timestamp;pressure;altitude;pressure_sealevel;temperature;humidity
31299;BME280;17927;52.350;13.402;2023-09-18T00:02:24;100884.22;;;24.25;47.01
31299;BME280;17927;52.350;13.402;2023-09-18T00:04:49;100879.16;;;24.22;47.37
31299;BME280;17927;52.350;13.402;2023-09-18T00:07:15;100885.13;;;24.18;46.99
31299;BME280;17927;52.350;13.402;2023-09-18T00:09:40;100876.47;;;24.15;47.37
31299;BME280;17927;52.350;13.402;2023-09-18T00:12:05;100880.31;;;24.14;46.92
31299;BME280;17927;52.350;13.402;2023-09-18T00:14:31;100881.63;;;24.11;47.12
31299;BME280;17927;52.350;13.402;2023-09-18T00:16:56;100878.47;;;24.08;47.33
31299;BME280;17927;52.350;13.402;2023-09-18T00:19:22;100877.00;;;24.05;47.33
31299;BME280;17927;52.350;13.402;2023-09-18T00:21:48;100871.75;;;24.04;47.43
31299;BME280;17927;52.350;13.402;2023-09-18T00:24:14;100875.56;;;24.02;47.66
31299;BME280;17927;52.350;13.402;2023-09-18T00:26:39;100865.00;;;23.99;47.61
31299;BME280;17927;52.350;13.402;2023-09-18T00:29:04;100866.31;;;23.97;47.55
31299;BME280;17927;52.350;13.402;2023-09-18T00:31:30;100862.03;;;23.94;47.83
31299;BME280;17927;52.350;13.402;2023-09-18T00:33:55;100870.56;;;23.93;47.55
31299;BME280;17927;52.350;13.402;2023-09-18T00:36:20;100861.66;;;23.91;47.90
31299;BME280;17927;52.350;13.402;2023-09-18T00:38:45;100861.28;;;23.87;47.93
31299;BME280;17927;52.350;13.402;2023-09-18T00:41:12;100858.53;;;23.87;47.94
31299;BME280;17927;52.350;13.402;2023-09-18T00:43:37;100853.47;;;23.84;47.87
31299;BME280;17927;52.350;13.402;2023-09-18T00:46:02;100850.94;;;23.82;47.96
31299;BME280;17927;52.350;13.402;2023-09-18T00:48:28;100851.41;;;23.79;47.71
31299;BME280;17927;52.350;13.402;2023-09-18T00:50:54;100854.38;;;23.78;47.93
31299;BME280;17927;52.350;13.402;2023-09-18T00:53:21;100854.59;;;23.76;47.99
31299;BME280;17927;52.350;13.402;2023-09-18T00:55:50;100842.13;;;23.74;48.09
31299;BME280;17927;52.350;13.402;2023-09-18T00:58:16;100842.56;;;23.70;48.06
31299;BME280;17927;52.350;13.402;2023-09-18T01:00:41;100831.16;;;23.67;48.22
31299;BME280;17927;52.350;13.402;2023-09-18T01:03:07;100834.13;;;23.65;48.42
31299;BME280;17927;52.350;13.402;2023-09-18T01:05:32;100840.97;;;23.63;48.23
31299;BME280;17927;52.350;13.402;2023-09-18T01:07:58;100845.63;;;23.62;48.49
31299;BME280;17927;52.350;13.402;2023-09-18T01:10:24;100835.03;;;23.59;48.56
31299;BME280;17927;52.350;13.402;2023-09-18T01:12:55;100833.59;;;23.56;48.37
31299;BME280;17927;52.350;13.402;2023-09-18T01:15:39;100833.84;;;23.55;48.65
31299;BME280;17927;52.350;13.402;2023-09-18T01:18:09;100832.84;;;23.49;48.49
31299;BME280;17927;52.350;13.402;2023-09-18T01:20:34;100830.28;;;23.48;48.61
31299;BME280;17927;52.350;13.402;2023-09-18T01:23:00;100829.91;;;23.44;48.94
31299;BME280;17927;52.350;13.402;2023-09-18T01:25:25;100828.22;;;23.43;48.65
31299;BME280;17927;52.350;13.402;2023-09-18T01:27:50;100825.69;;;23.41;48.92
31299;BME280;17927;52.350;13.402;2023-09-18T01:30:17;100819.56;;;23.39;48.80
31299;BME280;17927;52.350;13.402;2023-09-18T01:32:43;100816.41;;;23.36;48.72
31299;BME280;17927;52.350;13.402;2023-09-18T01:35:09;100829.34;;;23.35;49.03
31299;BME280;17927;52.350;13.402;2023-09-18T01:37:35;100818.16;;;23.30;49.12
31299;BME280;17927;52.350;13.402;2023-09-18T01:40:04;100823.03;;;23.28;48.96
31299;BME280;17927;52.350;13.402;2023-09-18T01:42:32;100821.59;;;23.25;49.21
31299;BME280;17927;52.350;13.402;2023-09-18T01:44:57;100819.28;;;23.22;49.32
31299;BME280;17927;52.350;13.402;2023-09-18T01:47:23;100816.97;;;23.19;49.51
31299;BME280;17927;52.350;13.402;2023-09-18T01:49:48;100818.88;;;23.19;49.57
31299;BME280;17927;52.350;13.402;2023-09-18T01:52:14;100819.31;;;23.16;49.42
31299;BME280;17927;52.350;13.402;2023-09-18T01:54:40;100808.75;;;23.12;49.43
31299;BME280;17927;52.350;13.402;2023-09-18T01:57:05;100802.63;;;23.10;49.60
31299;BME280;17927;52.350;13.402;2023-09-18T01:59:32;100799.47;;;23.07;49.55
31299;BME280;17927;52.350;13.402;2023-09-18T02:01:58;100796.94;;;23.05;49.83
31299;BME280;17927;52.350;13.402;2023-09-18T02:04:23;100794.88;;;23.01;49.47
31299;BME280;17927;52.350;13.402;2023-09-18T02:06:49;100785.38;;;22.96;50.00
31299;BME280;17927;52.350;13.402;2023-09-18T02:09:15;100783.06;;;22.93;50.10
31299;BME280;17927;52.350;13.402;2023-09-18T02:11:42;100778.63;;;22.92;49.98
31299;BME280;17927;52.350;13.402;2023-09-18T02:14:08;100768.91;;;22.90;50.04
31299;BME280;17927;52.350;13.402;2023-09-18T02:16:35;100763.84;;;22.87;50.02
31299;BME280;17927;52.350;13.402;2023-09-18T02:19:02;100763.22;;;22.85;50.04
31299;BME280;17927;52.350;13.402;2023-09-18T02:21:27;100754.34;;;22.83;50.35
31299;BME280;17927;52.350;13.402;2023-09-18T02:23:53;100762.00;;;22.80;50.38
31299;BME280;17927;52.350;13.402;2023-09-18T02:26:19;100760.53;;;22.78;49.99
31299;BME280;17927;52.350;13.402;2023-09-18T02:28:44;100755.47;;;22.75;50.45
31299;BME280;17927;52.350;13.402;2023-09-18T02:31:10;100750.19;;;22.73;50.25
31299;BME280;17927;52.350;13.402;2023-09-18T02:33:36;100751.50;;;22.71;50.62
31299;BME280;17927;52.350;13.402;2023-09-18T02:36:01;100748.94;;;22.69;50.26
31299;BME280;17927;52.350;13.402;2023-09-18T02:38:28;100752.75;;;22.68;50.38
31299;BME280;17927;52.350;13.402;2023-09-18T02:40:53;100747.09;;;22.63;50.70
31299;BME280;17927;52.350;13.402;2023-09-18T02:43:19;100746.47;;;22.61;50.45
31299;BME280;17927;52.350;13.402;2023-09-18T02:45:44;100734.84;;;22.59;50.89
31299;BME280;17927;52.350;13.402;2023-09-18T02:48:11;100738.03;;;22.56;50.98
31299;BME280;17927;52.350;13.402;2023-09-18T02:50:36;100733.22;;;22.51;51.08
31299;BME280;17927;52.350;13.402;2023-09-18T02:53:01;100733.44;;;22.49;50.91
31299;BME280;17927;52.350;13.402;2023-09-18T02:55:28;100734.50;;;22.48;51.12
31299;BME280;17927;52.350;13.402;2023-09-18T02:57:53;100728.38;;;22.46;50.99
31299;BME280;17927;52.350;13.402;2023-09-18T03:00:18;100719.50;;;22.44;51.30
31299;BME280;17927;52.350;13.402;2023-09-18T03:02:44;100726.47;;;22.40;51.15
31299;BME280;17927;52.350;13.402;2023-09-18T03:05:09;100715.69;;;22.39;51.08
31299;BME280;17927;52.350;13.402;2023-09-18T03:07:34;100713.38;;;22.35;51.17
31299;BME280;17927;52.350;13.402;2023-09-18T03:09:59;100699.88;;;22.34;51.27
31299;BME280;17927;52.350;13.402;2023-09-18T03:12:25;100704.94;;;22.30;51.37
31299;BME280;17927;52.350;13.402;2023-09-18T03:14:50;100701.56;;;22.28;51.33
31299;BME280;17927;52.350;13.402;2023-09-18T03:17:16;100707.31;;;22.27;51.36
31299;BME280;17927;52.350;13.402;2023-09-18T03:19:41;100707.53;;;22.25;51.43
31299;BME280;17927;52.350;13.402;2023-09-18T03:22:06;100703.31;;;22.23;51.83
31299;BME280;17927;52.350;13.402;2023-09-18T03:24:32;100700.78;;;22.21;51.54
31299;BME280;17927;52.350;13.402;2023-09-18T03:26:57;100693.84;;;22.18;51.70
31299;BME280;17927;52.350;13.402;2023-09-18T03:29:22;100697.66;;;22.17;51.73
31299;BME280;17927;52.350;13.402;2023-09-18T03:31:47;100694.28;;;22.15;51.77
31299;BME280;17927;52.350;13.402;2023-09-18T03:34:13;100692.59;;;22.14;51.75
31299;BME280;17927;52.350;13.402;2023-09-18T03:36:38;100697.47;;;22.12;51.70
31299;BME280;17927;52.350;13.402;2023-09-18T03:39:04;100689.22;;;22.12;52.09
31299;BME280;17927;52.350;13.402;2023-09-18T03:41:30;100690.50;;;22.10;52.49
31299;BME280;17927;52.350;13.402;2023-09-18T03:43:59;100693.47;;;22.08;52.17
31299;BME280;17927;52.350;13.402;2023-09-18T03:46:24;100691.78;;;22.07;52.44
31299;BME280;17927;52.350;13.402;2023-09-18T03:48:50;100699.41;;;22.05;52.24
31299;BME280;17927;52.350;13.402;2023-09-18T03:51:15;100694.13;;;22.03;52.50
31299;BME280;17927;52.350;13.402;2023-09-18T03:53:40;100694.34;;;22.02;52.13
31299;BME280;17927;52.350;13.402;2023-09-18T03:56:06;100689.06;;;22.00;52.55
31299;BME280;17927;52.350;13.402;2023-09-18T03:58:31;100688.44;;;21.98;52.25
31299;BME280;17927;52.350;13.402;2023-09-18T04:00:56;100675.97;;;21.96;52.19
31299;BME280;17927;52.350;13.402;2023-09-18T04:03:22;100674.06;;;21.96;52.37
31299;BME280;17927;52.350;13.402;2023-09-18T04:05:47;100671.53;;;21.95;52.28
31299;BME280;17927;52.350;13.402;2023-09-18T04:08:12;100667.34;;;21.92;52.77
31299;BME280;17927;52.350;13.402;2023-09-18T04:10:38;100662.03;;;21.90;52.86
31299;BME280;17927;52.350;13.402;2023-09-18T04:13:03;100660.59;;;21.88;52.67
31299;BME280;17927;52.350;13.402;2023-09-18T04:15:29;100654.47;;;21.86;52.52
31299;BME280;17927;52.350;13.402;2023-09-18T04:17:55;100660.81;;;21.86;52.67
31299;BME280;17927;52.350;13.402;2023-09-18T04:20:20;100657.44;;;21.84;52.65
31299;BME280;17927;52.350;13.402;2023-09-18T04:22:47;100658.50;;;21.83;52.72
31299;BME280;17927;52.350;13.402;2023-09-18T04:25:16;100658.72;;;21.82;53.15
31299;BME280;17927;52.350;13.402;2023-09-18T04:27:41;100650.69;;;21.80;52.89
31299;BME280;17927;52.350;13.402;2023-09-18T04:30:07;100654.50;;;21.79;53.38
31299;BME280;17927;52.350;13.402;2023-09-18T04:32:35;100649.00;;;21.79;53.01
31299;BME280;17927;52.350;13.402;2023-09-18T04:35:01;100652.81;;;21.78;53.21
31299;BME280;17927;52.350;13.402;2023-09-18T04:37:26;100649.25;;;21.78;53.40
31299;BME280;17927;52.350;13.402;2023-09-18T04:39:51;100640.38;;;21.75;53.29
31299;BME280;17927;52.350;13.402;2023-09-18T04:42:17;100640.56;;;21.74;53.35
31299;BME280;17927;52.350;13.402;2023-09-18T04:44:43;100637.00;;;21.73;53.48
31299;BME280;17927;52.350;13.402;2023-09-18T04:47:08;100640.81;;;21.72;53.17
31299;BME280;17927;52.350;13.402;2023-09-18T04:49:33;100638.88;;;21.73;53.45
31299;BME280;17927;52.350;13.402;2023-09-18T04:51:59;100639.97;;;21.72;53.44
31299;BME280;17927;52.350;13.402;2023-09-18T04:54:25;100642.09;;;21.70;53.67
31299;BME280;17927;52.350;13.402;2023-09-18T04:56:50;100634.03;;;21.68;53.76
31299;BME280;17927;52.350;13.402;2023-09-18T04:59:15;100644.41;;;21.66;53.46
31299;BME280;17927;52.350;13.402;2023-09-18T05:01:41;100639.16;;;21.65;53.83
31299;BME280;17927;52.350;13.402;2023-09-18T05:06:31;100644.66;;;21.65;53.73
31299;BME280;17927;52.350;13.402;2023-09-18T05:11:23;100634.91;;;21.69;54.13
31299;BME280;17927;52.350;13.402;2023-09-18T05:13:48;100639.53;;;21.68;53.93
31299;BME280;17927;52.350;13.402;2023-09-18T05:16:14;100631.72;;;21.72;53.94
31299;BME280;17927;52.350;13.402;2023-09-18T05:18:39;100622.38;;;21.73;54.21
31299;BME280;17927;52.350;13.402;2023-09-18T05:21:05;100628.06;;;21.78;54.56
31299;BME280;17927;52.350;13.402;2023-09-18T05:23:31;100627.41;;;21.83;54.30
31299;BME280;17927;52.350;13.402;2023-09-18T05:25:56;100617.66;;;21.87;54.20
31299;BME280;17927;52.350;13.402;2023-09-18T05:28:22;100620.16;;;21.95;54.80
31299;BME280;17927;52.350;13.402;2023-09-18T05:30:48;100619.63;;;22.05;54.88
31299;BME280;17927;52.350;13.402;2023-09-18T05:33:13;100620.00;;;22.15;54.47
31299;BME280;17927;52.350;13.402;2023-09-18T05:35:43;100619.28;;;22.27;54.70
31299;BME280;17927;52.350;13.402;2023-09-18T05:38:10;100616.84;;;22.37;54.10
31299;BME280;17927;52.350;13.402;2023-09-18T05:40:36;100612.81;;;22.46;54.27
31299;BME280;17927;52.350;13.402;2023-09-18T05:43:01;100607.63;;;22.57;54.31
31299;BME280;17927;52.350;13.402;2023-09-18T05:45:27;100596.53;;;22.63;54.10
31299;BME280;17927;52.350;13.402;2023-09-18T05:47:52;100598.38;;;22.70;54.24
31299;BME280;17927;52.350;13.402;2023-09-18T05:50:29;100593.25;;;22.73;54.04
31299;BME280;17927;52.350;13.402;2023-09-18T05:52:55;100582.41;;;22.78;54.02
31299;BME280;17927;52.350;13.402;2023-09-18T05:55:24;100588.53;;;22.80;53.54
31299;BME280;17927;52.350;13.402;2023-09-18T05:57:49;100582.56;;;22.84;54.00
31299;BME280;17927;52.350;13.402;2023-09-18T06:00:15;100581.28;;;22.86;53.94
31299;BME280;17927;52.350;13.402;2023-09-18T06:02:42;100581.88;;;22.88;54.00
31299;BME280;17927;52.350;13.402;2023-09-18T06:05:08;100580.59;;;22.91;53.60
31299;BME280;17927;52.350;13.402;2023-09-18T06:07:36;100581.81;;;22.95;53.40
31299;BME280;17927;52.350;13.402;2023-09-18T06:10:02;100565.03;;;22.96;53.48
31299;BME280;17927;52.350;13.402;2023-09-18T06:12:27;100570.09;;;23.00;53.56
31299;BME280;17927;52.350;13.402;2023-09-18T06:14:52;100565.22;;;23.02;53.68
31299;BME280;17927;52.350;13.402;2023-09-18T06:17:17;100564.72;;;23.05;54.01
31299;BME280;17927;52.350;13.402;2023-09-18T06:19:44;100558.53;;;23.09;53.83
31299;BME280;17927;52.350;13.402;2023-09-18T06:22:10;100555.47;;;23.18;53.50
31299;BME280;17927;52.350;13.402;2023-09-18T06:24:36;100555.41;;;23.24;53.78
31299;BME280;17927;52.350;13.402;2023-09-18T06:27:02;100559.03;;;23.37;53.74
31299;BME280;17927;52.350;13.402;2023-09-18T06:29:29;100558.72;;;23.45;54.04
31299;BME280;17927;52.350;13.402;2023-09-18T06:31:55;100555.78;;;23.59;53.93
31299;BME280;17927;52.350;13.402;2023-09-18T06:34:20;100546.94;;;23.68;53.61
31299;BME280;17927;52.350;13.402;2023-09-18T06:36:45;100541.69;;;23.79;53.30
31299;BME280;17927;52.350;13.402;2023-09-18T06:39:11;100540.28;;;23.88;53.17
31299;BME280;17927;52.350;13.402;2023-09-18T06:41:36;100534.78;;;24.00;53.08
31299;BME280;17927;52.350;13.402;2023-09-18T06:44:02;100538.03;;;24.09;52.86
31299;BME280;17927;52.350;13.402;2023-09-18T06:46:27;100524.75;;;24.17;53.27
31299;BME280;17927;52.350;13.402;2023-09-18T06:48:53;100522.72;;;24.25;52.91
31299;BME280;17927;52.350;13.402;2023-09-18T06:51:18;100517.69;;;24.33;52.71
31299;BME280;17927;52.350;13.402;2023-09-18T06:53:43;100512.63;;;24.42;52.57
31299;BME280;17927;52.350;13.402;2023-09-18T06:56:09;100515.88;;;24.51;52.53
31299;BME280;17927;52.350;13.402;2023-09-18T06:58:34;100511.03;;;24.58;52.28
31299;BME280;17927;52.350;13.402;2023-09-18T07:00:59;100507.06;;;24.66;52.46
31299;BME280;17927;52.350;13.402;2023-09-18T07:03:25;100515.25;;;24.73;52.30
31299;BME280;17927;52.350;13.402;2023-09-18T07:05:50;100502.16;;;24.80;52.09
31299;BME280;17927;52.350;13.402;2023-09-18T07:08:15;100498.16;;;24.88;52.11
31299;BME280;17927;52.350;13.402;2023-09-18T07:10:44;100496.09;;;24.95;51.99
31299;BME280;17927;52.350;13.402;2023-09-18T07:13:09;100486.81;;;25.01;52.22
31299;BME280;17927;52.350;13.402;2023-09-18T07:15:35;100487.50;;;25.08;51.93
31299;BME280;17927;52.350;13.402;2023-09-18T07:18:00;100498.19;;;25.17;51.88
31299;BME280;17927;52.350;13.402;2023-09-18T07:20:25;100493.09;;;25.26;51.77
31299;BME280;17927;52.350;13.402;2023-09-18T07:22:50;100491.38;;;25.36;51.48
31299;BME280;17927;52.350;13.402;2023-09-18T07:25:16;100479.91;;;25.45;51.56
31299;BME280;17927;52.350;13.402;2023-09-18T07:27:42;100486.72;;;25.54;51.42
31299;BME280;17927;52.350;13.402;2023-09-18T07:30:11;100476.66;;;25.65;51.37
31299;BME280;17927;52.350;13.402;2023-09-18T07:32:40;100483.47;;;25.74;50.95
31299;BME280;17927;52.350;13.402;2023-09-18T07:35:11;100475.59;;;25.83;51.00
31299;BME280;17927;52.350;13.402;2023-09-18T07:37:38;100480.97;;;25.90;50.93
31299;BME280;17927;52.350;13.402;2023-09-18T07:40:07;100480.78;;;25.96;50.60
31299;BME280;17927;52.350;13.402;2023-09-18T07:42:32;100480.59;;;26.03;50.44
31299;BME280;17927;52.350;13.402;2023-09-18T07:44:58;100479.56;;;26.09;50.69
31299;BME280;17927;52.350;13.402;2023-09-18T07:47:23;100483.31;;;26.15;50.17
31299;BME280;17927;52.350;13.402;2023-09-18T07:49:49;100477.25;;;26.18;50.09
31299;BME280;17927;52.350;13.402;2023-09-18T07:52:14;100464.59;;;26.22;49.97
31299;BME280;17927;52.350;13.402;2023-09-18T07:54:40;100471.03;;;26.28;49.82
31299;BME280;17927;52.350;13.402;2023-09-18T07:57:05;100465.31;;;26.35;50.06
31299;BME280;17927;52.350;13.402;2023-09-18T07:59:34;100475.38;;;26.41;49.82
31299;BME280;17927;52.350;13.402;2023-09-18T08:01:59;100468.81;;;26.47;49.92
31299;BME280;17927;52.350;13.402;2023-09-18T08:04:24;100457.88;;;26.57;50.00
31299;BME280;17927;52.350;13.402;2023-09-18T08:06:50;100467.38;;;26.67;49.67
31299;BME280;17927;52.350;13.402;2023-09-18T08:09:15;100470.53;;;26.75;49.52
31299;BME280;17927;52.350;13.402;2023-09-18T08:11:42;100457.38;;;26.83;49.17
31299;BME280;17927;52.350;13.402;2023-09-18T08:14:08;100456.31;;;26.89;49.18
31299;BME280;17927;52.350;13.402;2023-09-18T08:16:34;100458.06;;;26.95;49.19
31299;BME280;17927;52.350;13.402;2023-09-18T08:19:01;100444.59;;;27.04;49.03
31299;BME280;17927;52.350;13.402;2023-09-18T08:21:26;100449.63;;;27.12;49.21
31299;BME280;17927;52.350;13.402;2023-09-18T08:23:54;100448.34;;;27.20;48.74
31299;BME280;17927;52.350;13.402;2023-09-18T08:26:19;100436.78;;;27.28;48.87
31299;BME280;17927;52.350;13.402;2023-09-18T08:28:44;100440.75;;;27.38;48.65
31299;BME280;17927;52.350;13.402;2023-09-18T08:31:10;100443.09;;;27.46;48.71
31299;BME280;17927;52.350;13.402;2023-09-18T08:33:35;100431.25;;;27.56;48.65
31299;BME280;17927;52.350;13.402;2023-09-18T08:36:01;100442.66;;;27.64;48.43
31299;BME280;17927;52.350;13.402;2023-09-18T08:38:26;100446.59;;;27.69;47.95
31299;BME280;17927;52.350;13.402;2023-09-18T08:40:53;100443.56;;;27.75;47.79
31299;BME280;17927;52.350;13.402;2023-09-18T08:43:19;100437.22;;;27.80;48.01
31299;BME280;17927;52.350;13.402;2023-09-18T08:45:55;100431.72;;;27.85;47.50
31299;BME280;17927;52.350;13.402;2023-09-18T08:48:27;100418.72;;;27.91;47.13
31299;BME280;17927;52.350;13.402;2023-09-18T08:50:59;100424.03;;;27.98;47.36
31299;BME280;17927;52.350;13.402;2023-09-18T08:53:25;100403.81;;;28.02;47.19
31299;BME280;17927;52.350;13.402;2023-09-18T08:55:50;100396.59;;;28.06;47.20
31299;BME280;17927;52.350;13.402;2023-09-18T08:58:15;100399.44;;;28.11;47.27
31299;BME280;17927;52.350;13.402;2023-09-18T09:00:44;100386.13;;;28.19;47.04
31299;BME280;17927;52.350;13.402;2023-09-18T09:03:09;100390.34;;;28.26;47.18
31299;BME280;17927;52.350;13.402;2023-09-18T09:05:35;100392.91;;;28.33;47.05
31299;BME280;17927;52.350;13.402;2023-09-18T09:08:00;100393.47;;;28.40;47.04
31299;BME280;17927;52.350;13.402;2023-09-18T09:10:26;100387.66;;;28.47;46.79
31299;BME280;17927;52.350;13.402;2023-09-18T09:12:54;100387.41;;;28.54;46.35
31299;BME280;17927;52.350;13.402;2023-09-18T09:15:22;100380.78;;;28.60;46.32
31299;BME280;17927;52.350;13.402;2023-09-18T09:17:49;100374.66;;;28.68;46.10
31299;BME280;17927;52.350;13.402;2023-09-18T09:20:15;100370.28;;;28.78;46.38
31299;BME280;17927;52.350;13.402;2023-09-18T09:22:41;100359.47;;;28.86;45.71
31299;BME280;17927;52.350;13.402;2023-09-18T09:25:23;100364.19;;;28.96;45.85
31299;BME280;17927;52.350;13.402;2023-09-18T09:27:51;100357.53;;;29.02;45.64
31299;BME280;17927;52.350;13.402;2023-09-18T09:30:22;100363.38;;;29.11;44.99
31299;BME280;17927;52.350;13.402;2023-09-18T09:32:49;100377.84;;;29.19;45.37
31299;BME280;17927;52.350;13.402;2023-09-18T09:35:21;100387.84;;;29.25;44.70
31299;BME280;17927;52.350;13.402;2023-09-18T09:37:46;100376.16;;;29.07;45.66
31299;BME280;17927;52.350;13.402;2023-09-18T09:40:12;100378.66;;;29.19;45.69
31299;BME280;17927;52.350;13.402;2023-09-18T09:42:40;100369.25;;;29.36;44.94
31299;BME280;17927;52.350;13.402;2023-09-18T09:45:11;100370.91;;;29.47;44.92
31299;BME280;17927;52.350;13.402;2023-09-18T09:47:37;100369.25;;;29.56;44.30
31299;BME280;17927;52.350;13.402;2023-09-18T09:50:15;100368.66;;;29.65;43.61
31299;BME280;17927;52.350;13.402;2023-09-18T09:52:46;100364.47;;;29.67;43.91
31299;BME280;17927;52.350;13.402;2023-09-18T09:55:27;100360.56;;;29.68;43.10
31299;BME280;17927;52.350;13.402;2023-09-18T09:58:07;100354.75;;;29.70;43.33
31299;BME280;17927;52.350;13.402;2023-09-18T10:00:37;100346.66;;;29.73;43.27
31299;BME280;17927;52.350;13.402;2023-09-18T10:03:10;100334.69;;;29.78;43.25
31299;BME280;17927;52.350;13.402;2023-09-18T10:05:38;100337.47;;;29.83;42.91
31299;BME280;17927;52.350;13.402;2023-09-18T10:08:07;100338.84;;;29.86;42.72
31299;BME280;17927;52.350;13.402;2023-09-18T10:10:36;100339.38;;;29.88;42.26
31299;BME280;17927;52.350;13.402;2023-09-18T10:13:08;100324.06;;;29.90;42.32
31299;BME280;17927;52.350;13.402;2023-09-18T10:15:35;100318.78;;;29.94;42.56
31299;BME280;17927;52.350;13.402;2023-09-18T10:18:05;100336.59;;;29.98;42.61
31299;BME280;17927;52.350;13.402;2023-09-18T10:20:37;100342.44;;;30.02;42.12
31299;BME280;17927;52.350;13.402;2023-09-18T10:23:12;100341.03;;;30.04;41.98
31299;BME280;17927;52.350;13.402;2023-09-18T10:25:43;100349.66;;;30.08;42.22
31299;BME280;17927;52.350;13.402;2023-09-18T10:28:09;100347.72;;;30.08;42.56
31299;BME280;17927;52.350;13.402;2023-09-18T10:30:35;100358.84;;;30.08;42.27
31299;BME280;17927;52.350;13.402;2023-09-18T10:33:02;100362.75;;;30.07;41.84
31299;BME280;17927;52.350;13.402;2023-09-18T10:35:27;100352.44;;;30.08;41.56
31299;BME280;17927;52.350;13.402;2023-09-18T10:37:54;100353.00;;;30.10;41.82
31299;BME280;17927;52.350;13.402;2023-09-18T10:40:20;100362.16;;;30.16;41.73
31299;BME280;17927;52.350;13.402;2023-09-18T10:42:47;100360.16;;;30.21;42.16
31299;BME280;17927;52.350;13.402;2023-09-18T10:45:13;100353.19;;;30.29;41.94
31299;BME280;17927;52.350;13.402;2023-09-18T10:47:42;100352.59;;;30.37;41.78
31299;BME280;17927;52.350;13.402;2023-09-18T10:50:10;100345.34;;;30.42;41.68
31299;BME280;17927;52.350;13.402;2023-09-18T10:52:36;100340.81;;;30.51;42.17
31299;BME280;17927;52.350;13.402;2023-09-18T10:55:01;100352.78;;;30.62;41.75
31299;BME280;17927;52.350;13.402;2023-09-18T10:57:34;100340.22;;;30.64;41.40
31299;BME280;17927;52.350;13.402;2023-09-18T11:00:00;100352.22;;;30.65;41.48
31299;BME280;17927;52.350;13.402;2023-09-18T11:02:27;100344.97;;;30.64;41.01
31299;BME280;17927;52.350;13.402;2023-09-18T11:04:53;100333.28;;;30.62;40.39
31299;BME280;17927;52.350;13.402;2023-09-18T11:07:23;100341.38;;;30.58;40.21
31299;BME280;17927;52.350;13.402;2023-09-18T11:09:49;100345.84;;;30.49;40.46
31299;BME280;17927;52.350;13.402;2023-09-18T11:12:16;100341.97;;;30.45;40.51
31299;BME280;17927;52.350;13.402;2023-09-18T11:17:35;100358.19;;;30.32;40.62
31299;BME280;17927;52.350;13.402;2023-09-18T11:22:34;100351.00;;;30.21;40.73
31299;BME280;17927;52.350;13.402;2023-09-18T11:28:00;100353.53;;;30.12;40.93
31299;BME280;17927;52.350;13.402;2023-09-18T11:30:29;100359.97;;;30.13;40.60
31299;BME280;17927;52.350;13.402;2023-09-18T11:32:55;100358.28;;;30.12;40.51
31299;BME280;17927;52.350;13.402;2023-09-18T11:35:21;100366.09;;;30.10;40.98
31299;BME280;17927;52.350;13.402;2023-09-18T11:38:02;100359.66;;;30.09;40.63
31299;BME280;17927;52.350;13.402;2023-09-18T11:40:31;100360.53;;;30.04;40.90
31299;BME280;17927;52.350;13.402;2023-09-18T11:43:21;100351.06;;;30.05;41.19
31299;BME280;17927;52.350;13.402;2023-09-18T11:45:54;100346.59;;;30.04;41.35
31299;BME280;17927;52.350;13.402;2023-09-18T11:48:22;100352.19;;;30.04;41.40
31299;BME280;17927;52.350;13.402;2023-09-18T11:50:53;100338.56;;;30.03;41.51
31299;BME280;17927;52.350;13.402;2023-09-18T11:53:20;100346.59;;;30.04;41.25
31299;BME280;17927;52.350;13.402;2023-09-18T11:55:46;100344.38;;;30.06;41.33
31299;BME280;17927;52.350;13.402;2023-09-18T11:58:12;100346.59;;;30.10;41.10
31299;BME280;17927;52.350;13.402;2023-09-18T12:00:38;100343.78;;;30.15;41.08
31299;BME280;17927;52.350;13.402;2023-09-18T12:03:18;100339.84;;;30.21;41.36
31299;BME280;17927;52.350;13.402;2023-09-18T12:05:52;100346.50;;;30.30;41.46
31299;BME280;17927;52.350;13.402;2023-09-18T12:08:18;100341.97;;;30.45;41.55
31299;BME280;17927;52.350;13.402;2023-09-18T12:10:44;100344.66;;;30.65;41.78
31299;BME280;17927;52.350;13.402;2023-09-18T12:13:09;100337.31;;;30.85;41.20
31299;BME280;17927;52.350;13.402;2023-09-18T12:15:34;100324.34;;;31.05;40.83
31299;BME280;17927;52.350;13.402;2023-09-18T12:18:05;100329.81;;;31.20;39.95
31299;BME280;17927;52.350;13.402;2023-09-18T12:20:31;100329.16;;;31.28;39.72
31299;BME280;17927;52.350;13.402;2023-09-18T12:22:59;100315.75;;;31.31;38.81
31299;BME280;17927;52.350;13.402;2023-09-18T12:25:24;100313.28;;;31.29;39.01
31299;BME280;17927;52.350;13.402;2023-09-18T12:27:53;100305.75;;;31.24;38.63
31299;BME280;17927;52.350;13.402;2023-09-18T12:30:19;100316.38;;;31.22;38.26
31299;BME280;17927;52.350;13.402;2023-09-18T12:32:46;100320.59;;;31.20;38.38
31299;BME280;17927;52.350;13.402;2023-09-18T12:35:13;100307.78;;;31.19;38.42
31299;BME280;17927;52.350;13.402;2023-09-18T12:37:40;100312.22;;;31.20;38.90
31299;BME280;17927;52.350;13.402;2023-09-18T12:40:07;100300.25;;;31.19;38.88
31299;BME280;17927;52.350;13.402;2023-09-18T12:42:45;100302.50;;;31.17;38.32
31299;BME280;17927;52.350;13.402;2023-09-18T12:45:11;100306.97;;;31.18;38.58
31299;BME280;17927;52.350;13.402;2023-09-18T12:47:37;100293.59;;;31.15;38.45
31299;BME280;17927;52.350;13.402;2023-09-18T12:50:07;100305.88;;;31.14;38.47
31299;BME280;17927;52.350;13.402;2023-09-18T12:52:32;100301.97;;;31.10;38.41